sensor_id;sensor_type;location;lat;lon;timestamp;temperature;humidity
15906;DHT22;8051;50.820;4.884;2023-10-09T00:00:55;14.80;99.90
15906;DHT22;8051;50.820;4.884;2023-10-09T00:03:27;14.70;99.90
15906;DHT22;8051;50.820;4.884;2023-10-09T00:05:55;14.60;99.90
15906;DHT22;8051;50.820;4.884;2023-10-09T00:08:23;14.60;99.90
15906;DHT22;8051;50.820;4.884;2023-10-09T00:10:57;14.60;99.90
15906;DHT22;8051;50.820;4.884;2023-10-09T00:13:39;14.60;99.90
15906;DHT22;8051;50.820;4.884;2023-10-09T00:16:17;14.50;99.90
15906;DHT22;8051;50.820;4.884;2023-10-09T00:18:52;14.50;99.90
15906;DHT22;8051;50.820;4.884;2023-10-09T00:21:20;14.40;99.90
15906;DHT22;8051;50.820;4.884;2023-10-09T00:23:48;14.40;99.90
15906;DHT22;8051;50.820;4.884;2023-10-09T00:26:21;14.40;99.90
15906;DHT22;8051;50.820;4.884;2023-10-09T00:28:49;14.50;99.90
15906;DHT22;8051;50.820;4.884;2023-10-09T00:31:19;14.50;99.90
15906;DHT22;8051;50.820;4.884;2023-10-09T00:33:56;14.60;99.90
15906;DHT22;8051;50.820;4.884;2023-10-09T00:36:33;14.60;99.90
15906;DHT22;8051;50.820;4.884;2023-10-09T00:39:16;14.70;99.90
15906;DHT22;8051;50.820;4.884;2023-10-09T00:41:56;14.80;99.90
15906;DHT22;8051;50.820;4.884;2023-10-09T00:44:25;14.80;99.90
15906;DHT22;8051;50.820;4.884;2023-10-09T00:47:05;14.90;99.90
15906;DHT22;8051;50.820;4.884;2023-10-09T00:49:47;15.00;99.90
15906;DHT22;8051;50.820;4.884;2023-10-09T00:52:16;15.10;99.90
15906;DHT22;8051;50.820;4.884;2023-10-09T00:54:55;15.10;99.90
15906;DHT22;8051;50.820;4.884;2023-10-09T00:57:28;15.30;99.90
15906;DHT22;8051;50.820;4.884;2023-10-09T01:00:00;15.30;99.90
15906;DHT22;8051;50.820;4.884;2023-10-09T01:02:40;15.40;99.90
15906;DHT22;8051;50.820;4.884;2023-10-09T01:05:10;15.40;99.90
15906;DHT22;8051;50.820;4.884;2023-10-09T01:07:47;15.30;99.90
15906;DHT22;8051;50.820;4.884;2023-10-09T01:10:16;15.30;99.90
15906;DHT22;8051;50.820;4.884;2023-10-09T01:12:46;15.30;99.90
15906;DHT22;8051;50.820;4.884;2023-10-09T01:15:21;15.20;99.90
15906;DHT22;8051;50.820;4.884;2023-10-09T01:18:04;15.20;99.90
15906;DHT22;8051;50.820;4.884;2023-10-09T01:20:34;15.20;99.90
15906;DHT22;8051;50.820;4.884;2023-10-09T01:23:10;15.30;99.90
15906;DHT22;8051;50.820;4.884;2023-10-09T01:25:38;15.30;99.90
15906;DHT22;8051;50.820;4.884;2023-10-09T01:28:15;15.30;99.90
15906;DHT22;8051;50.820;4.884;2023-10-09T01:30:43;15.30;99.90
15906;DHT22;8051;50.820;4.884;2023-10-09T01:33:13;15.30;99.90
15906;DHT22;8051;50.820;4.884;2023-10-09T01:35:43;15.30;99.90
15906;DHT22;8051;50.820;4.884;2023-10-09T01:38:16;15.30;99.90
15906;DHT22;8051;50.820;4.884;2023-10-09T01:40:45;15.30;99.90
15906;DHT22;8051;50.820;4.884;2023-10-09T01:43:17;15.30;99.90
15906;DHT22;8051;50.820;4.884;2023-10-09T01:45:47;15.30;99.90
15906;DHT22;8051;50.820;4.884;2023-10-09T01:48:18;15.30;99.90
15906;DHT22;8051;50.820;4.884;2023-10-09T01:50:50;15.30;99.90
15906;DHT22;8051;50.820;4.884;2023-10-09T01:53:19;15.30;99.90
15906;DHT22;8051;50.820;4.884;2023-10-09T01:55:49;15.40;99.90
15906;DHT22;8051;50.820;4.884;2023-10-09T01:58:20;15.40;99.90
15906;DHT22;8051;50.820;4.884;2023-10-09T02:00:53;15.30;99.90
15906;DHT22;8051;50.820;4.884;2023-10-09T02:03:23;15.30;99.90
15906;DHT22;8051;50.820;4.884;2023-10-09T02:05:51;15.40;99.90
15906;DHT22;8051;50.820;4.884;2023-10-09T02:08:26;15.40;99.90
15906;DHT22;8051;50.820;4.884;2023-10-09T02:11:02;15.40;99.90
15906;DHT22;8051;50.820;4.884;2023-10-09T02:13:29;15.40;99.90
15906;DHT22;8051;50.820;4.884;2023-10-09T02:16:00;15.40;99.90
15906;DHT22;8051;50.820;4.884;2023-10-09T02:18:40;15.40;99.90
15906;DHT22;8051;50.820;4.884;2023-10-09T02:21:18;15.50;99.90
15906;DHT22;8051;50.820;4.884;2023-10-09T02:23:56;15.50;99.90
15906;DHT22;8051;50.820;4.884;2023-10-09T02:26:28;15.40;99.90
15906;DHT22;8051;50.820;4.884;2023-10-09T02:29:19;15.40;99.90
15906;DHT22;8051;50.820;4.884;2023-10-09T02:31:50;15.40;99.90
15906;DHT22;8051;50.820;4.884;2023-10-09T02:34:20;15.40;99.90
15906;DHT22;8051;50.820;4.884;2023-10-09T02:36:53;15.40;99.90
15906;DHT22;8051;50.820;4.884;2023-10-09T02:39:31;15.40;99.90
15906;DHT22;8051;50.820;4.884;2023-10-09T02:42:03;15.40;99.90
15906;DHT22;8051;50.820;4.884;2023-10-09T02:44:45;15.40;99.90
15906;DHT22;8051;50.820;4.884;2023-10-09T02:47:15;15.40;99.90
15906;DHT22;8051;50.820;4.884;2023-10-09T02:49:47;15.30;99.90
15906;DHT22;8051;50.820;4.884;2023-10-09T02:52:16;15.40;99.90
15906;DHT22;8051;50.820;4.884;2023-10-09T02:54:52;15.30;99.90
15906;DHT22;8051;50.820;4.884;2023-10-09T02:57:27;15.30;99.90
15906;DHT22;8051;50.820;4.884;2023-10-09T03:00:03;15.30;99.90
15906;DHT22;8051;50.820;4.884;2023-10-09T03:02:34;15.20;99.90
15906;DHT22;8051;50.820;4.884;2023-10-09T03:05:06;15.20;99.90
15906;DHT22;8051;50.820;4.884;2023-10-09T03:07:38;15.20;99.90
15906;DHT22;8051;50.820;4.884;2023-10-09T03:10:08;15.20;99.90
15906;DHT22;8051;50.820;4.884;2023-10-09T03:12:36;15.20;99.90
15906;DHT22;8051;50.820;4.884;2023-10-09T03:15:06;15.10;99.90
15906;DHT22;8051;50.820;4.884;2023-10-09T03:17:34;15.10;99.90
15906;DHT22;8051;50.820;4.884;2023-10-09T03:20:03;15.10;99.90
15906;DHT22;8051;50.820;4.884;2023-10-09T03:22:38;15.10;99.90
15906;DHT22;8051;50.820;4.884;2023-10-09T03:25:08;15.20;99.90
15906;DHT22;8051;50.820;4.884;2023-10-09T03:27:38;15.10;99.90
15906;DHT22;8051;50.820;4.884;2023-10-09T03:30:09;15.10;99.90
15906;DHT22;8051;50.820;4.884;2023-10-09T03:32:43;15.10;99.90
15906;DHT22;8051;50.820;4.884;2023-10-09T03:35:10;15.20;99.90
15906;DHT22;8051;50.820;4.884;2023-10-09T03:37:43;15.10;99.90
15906;DHT22;8051;50.820;4.884;2023-10-09T03:40:12;15.10;99.90
15906;DHT22;8051;50.820;4.884;2023-10-09T03:42:44;15.10;99.90
15906;DHT22;8051;50.820;4.884;2023-10-09T03:45:11;15.00;99.90
15906;DHT22;8051;50.820;4.884;2023-10-09T03:47:51;15.00;99.90
15906;DHT22;8051;50.820;4.884;2023-10-09T03:50:23;15.00;99.90
15906;DHT22;8051;50.820;4.884;2023-10-09T03:53:03;15.00;99.90
15906;DHT22;8051;50.820;4.884;2023-10-09T03:55:35;15.00;99.90
15906;DHT22;8051;50.820;4.884;2023-10-09T03:58:04;15.00;99.90
15906;DHT22;8051;50.820;4.884;2023-10-09T04:00:32;15.00;99.90
15906;DHT22;8051;50.820;4.884;2023-10-09T04:03:11;14.90;99.90
15906;DHT22;8051;50.820;4.884;2023-10-09T04:05:40;15.00;99.90
15906;DHT22;8051;50.820;4.884;2023-10-09T04:08:09;14.90;99.90
15906;DHT22;8051;50.820;4.884;2023-10-09T04:10:47;14.90;99.90
15906;DHT22;8051;50.820;4.884;2023-10-09T04:13:27;14.90;99.90
15906;DHT22;8051;50.820;4.884;2023-10-09T04:16:00;14.80;99.90
15906;DHT22;8051;50.820;4.884;2023-10-09T04:18:35;14.80;99.90
15906;DHT22;8051;50.820;4.884;2023-10-09T04:21:05;14.80;99.90
15906;DHT22;8051;50.820;4.884;2023-10-09T04:23:56;14.90;99.90
15906;DHT22;8051;50.820;4.884;2023-10-09T04:26:43;14.80;99.90
15906;DHT22;8051;50.820;4.884;2023-10-09T04:29:11;14.80;99.90
15906;DHT22;8051;50.820;4.884;2023-10-09T04:31:45;14.90;99.90
15906;DHT22;8051;50.820;4.884;2023-10-09T04:34:17;14.90;99.90
15906;DHT22;8051;50.820;4.884;2023-10-09T04:36:56;14.90;99.90
15906;DHT22;8051;50.820;4.884;2023-10-09T04:39:45;15.00;99.90
15906;DHT22;8051;50.820;4.884;2023-10-09T04:42:28;15.00;99.90
15906;DHT22;8051;50.820;4.884;2023-10-09T04:45:12;15.00;99.90
15906;DHT22;8051;50.820;4.884;2023-10-09T04:47:46;15.00;99.90
15906;DHT22;8051;50.820;4.884;2023-10-09T04:50:24;15.00;99.90
15906;DHT22;8051;50.820;4.884;2023-10-09T04:53:14;15.00;99.90
15906;DHT22;8051;50.820;4.884;2023-10-09T04:55:49;15.00;99.90
15906;DHT22;8051;50.820;4.884;2023-10-09T04:58:32;15.00;99.90
15906;DHT22;8051;50.820;4.884;2023-10-09T05:01:05;15.00;99.90
15906;DHT22;8051;50.820;4.884;2023-10-09T05:03:41;15.00;99.90
15906;DHT22;8051;50.820;4.884;2023-10-09T05:06:12;15.10;99.90
15906;DHT22;8051;50.820;4.884;2023-10-09T05:09:09;15.00;99.90
15906;DHT22;8051;50.820;4.884;2023-10-09T05:11:39;15.10;99.90
15906;DHT22;8051;50.820;4.884;2023-10-09T05:14:37;15.10;99.90
15906;DHT22;8051;50.820;4.884;2023-10-09T05:17:11;15.10;99.90
15906;DHT22;8051;50.820;4.884;2023-10-09T05:19:43;15.10;99.90
15906;DHT22;8051;50.820;4.884;2023-10-09T05:22:41;15.10;99.90
15906;DHT22;8051;50.820;4.884;2023-10-09T05:25:23;15.10;99.90
15906;DHT22;8051;50.820;4.884;2023-10-09T05:28:04;15.10;99.90
15906;DHT22;8051;50.820;4.884;2023-10-09T05:30:47;15.10;99.90
15906;DHT22;8051;50.820;4.884;2023-10-09T05:33:20;15.10;99.90
15906;DHT22;8051;50.820;4.884;2023-10-09T05:36:00;15.10;99.90
15906;DHT22;8051;50.820;4.884;2023-10-09T05:39:01;15.10;99.90
15906;DHT22;8051;50.820;4.884;2023-10-09T05:41:45;15.10;99.90
15906;DHT22;8051;50.820;4.884;2023-10-09T05:44:25;15.10;99.90
15906;DHT22;8051;50.820;4.884;2023-10-09T05:47:11;15.10;99.90
15906;DHT22;8051;50.820;4.884;2023-10-09T05:49:58;15.10;99.90
15906;DHT22;8051;50.820;4.884;2023-10-09T05:52:42;15.10;99.90
15906;DHT22;8051;50.820;4.884;2023-10-09T05:55:25;15.10;99.90
15906;DHT22;8051;50.820;4.884;2023-10-09T05:58:10;15.10;99.90
15906;DHT22;8051;50.820;4.884;2023-10-09T06:00:54;15.10;99.90
15906;DHT22;8051;50.820;4.884;2023-10-09T06:03:41;15.00;99.90
15906;DHT22;8051;50.820;4.884;2023-10-09T06:06:21;15.00;99.90
15906;DHT22;8051;50.820;4.884;2023-10-09T06:09:09;15.10;99.90
15906;DHT22;8051;50.820;4.884;2023-10-09T06:11:54;15.10;99.90
15906;DHT22;8051;50.820;4.884;2023-10-09T06:14:38;15.10;99.90
15906;DHT22;8051;50.820;4.884;2023-10-09T06:17:24;15.10;99.90
15906;DHT22;8051;50.820;4.884;2023-10-09T06:19:54;15.10;99.90
15906;DHT22;8051;50.820;4.884;2023-10-09T06:22:45;15.20;99.90
15906;DHT22;8051;50.820;4.884;2023-10-09T06:25:24;15.10;99.90
15906;DHT22;8051;50.820;4.884;2023-10-09T06:27:58;15.10;99.90
15906;DHT22;8051;50.820;4.884;2023-10-09T06:30:27;15.10;99.90
15906;DHT22;8051;50.820;4.884;2023-10-09T06:32:54;15.10;99.90
15906;DHT22;8051;50.820;4.884;2023-10-09T06:35:35;15.10;99.90
15906;DHT22;8051;50.820;4.884;2023-10-09T06:38:02;15.20;99.90
15906;DHT22;8051;50.820;4.884;2023-10-09T06:40:52;15.20;99.90
15906;DHT22;8051;50.820;4.884;2023-10-09T06:43:37;15.30;99.90
15906;DHT22;8051;50.820;4.884;2023-10-09T06:46:15;15.30;99.90
15906;DHT22;8051;50.820;4.884;2023-10-09T06:49:00;15.30;99.90
15906;DHT22;8051;50.820;4.884;2023-10-09T06:51:49;15.40;99.90
15906;DHT22;8051;50.820;4.884;2023-10-09T06:54:21;15.50;99.90
15906;DHT22;8051;50.820;4.884;2023-10-09T06:56:51;15.50;99.90
15906;DHT22;8051;50.820;4.884;2023-10-09T06:59:36;15.60;99.90
15906;DHT22;8051;50.820;4.884;2023-10-09T07:02:29;15.60;99.90
15906;DHT22;8051;50.820;4.884;2023-10-09T07:05:02;15.70;99.90
15906;DHT22;8051;50.820;4.884;2023-10-09T07:07:38;15.70;99.90
15906;DHT22;8051;50.820;4.884;2023-10-09T07:10:16;15.80;99.90
15906;DHT22;8051;50.820;4.884;2023-10-09T07:12:59;15.80;99.90
15906;DHT22;8051;50.820;4.884;2023-10-09T07:15:28;15.90;99.90
15906;DHT22;8051;50.820;4.884;2023-10-09T07:18:12;16.00;99.90
15906;DHT22;8051;50.820;4.884;2023-10-09T07:20:49;16.00;99.90
15906;DHT22;8051;50.820;4.884;2023-10-09T07:23:27;16.10;99.90
15906;DHT22;8051;50.820;4.884;2023-10-09T07:26:04;16.20;99.90
15906;DHT22;8051;50.820;4.884;2023-10-09T07:28:48;16.30;99.90
15906;DHT22;8051;50.820;4.884;2023-10-09T07:31:20;16.40;99.90
15906;DHT22;8051;50.820;4.884;2023-10-09T07:33:55;16.40;99.90
15906;DHT22;8051;50.820;4.884;2023-10-09T07:36:26;16.40;99.90
15906;DHT22;8051;50.820;4.884;2023-10-09T07:39:06;16.50;99.90
15906;DHT22;8051;50.820;4.884;2023-10-09T07:41:43;16.60;99.90
15906;DHT22;8051;50.820;4.884;2023-10-09T07:44:27;16.60;99.90
15906;DHT22;8051;50.820;4.884;2023-10-09T07:47:04;16.70;99.90
15906;DHT22;8051;50.820;4.884;2023-10-09T07:49:44;16.80;99.90
15906;DHT22;8051;50.820;4.884;2023-10-09T07:52:18;16.90;99.90
15906;DHT22;8051;50.820;4.884;2023-10-09T07:54:49;17.00;99.90
15906;DHT22;8051;50.820;4.884;2023-10-09T07:57:20;17.00;99.90
15906;DHT22;8051;50.820;4.884;2023-10-09T07:59:52;17.00;99.90
15906;DHT22;8051;50.820;4.884;2023-10-09T08:02:38;17.20;99.90
15906;DHT22;8051;50.820;4.884;2023-10-09T08:05:05;17.20;99.90
15906;DHT22;8051;50.820;4.884;2023-10-09T08:07:45;17.40;99.90
15906;DHT22;8051;50.820;4.884;2023-10-09T08:10:26;17.50;99.90
15906;DHT22;8051;50.820;4.884;2023-10-09T08:13:25;17.80;99.90
15906;DHT22;8051;50.820;4.884;2023-10-09T08:16:10;17.90;99.90
15906;DHT22;8051;50.820;4.884;2023-10-09T08:18:46;17.90;99.90
15906;DHT22;8051;50.820;4.884;2023-10-09T08:21:12;18.00;99.90
15906;DHT22;8051;50.820;4.884;2023-10-09T08:24:08;18.10;99.90
15906;DHT22;8051;50.820;4.884;2023-10-09T08:26:57;18.10;99.90
15906;DHT22;8051;50.820;4.884;2023-10-09T08:29:38;18.10;99.90
15906;DHT22;8051;50.820;4.884;2023-10-09T08:32:12;18.10;99.90
15906;DHT22;8051;50.820;4.884;2023-10-09T08:34:44;18.10;99.90
15906;DHT22;8051;50.820;4.884;2023-10-09T08:37:19;18.00;99.90
15906;DHT22;8051;50.820;4.884;2023-10-09T08:39:51;18.00;99.90
15906;DHT22;8051;50.820;4.884;2023-10-09T08:42:22;18.00;99.90
15906;DHT22;8051;50.820;4.884;2023-10-09T08:44:51;18.00;99.90
15906;DHT22;8051;50.820;4.884;2023-10-09T08:47:19;18.00;99.90
15906;DHT22;8051;50.820;4.884;2023-10-09T08:49:46;18.00;99.90
15906;DHT22;8051;50.820;4.884;2023-10-09T08:52:14;18.00;99.90
15906;DHT22;8051;50.820;4.884;2023-10-09T08:54:43;18.00;99.90
15906;DHT22;8051;50.820;4.884;2023-10-09T08:57:11;18.10;99.90
15906;DHT22;8051;50.820;4.884;2023-10-09T08:59:42;18.20;99.90
15906;DHT22;8051;50.820;4.884;2023-10-09T09:02:10;18.20;99.90
15906;DHT22;8051;50.820;4.884;2023-10-09T09:04:38;18.20;99.90
15906;DHT22;8051;50.820;4.884;2023-10-09T09:07:06;18.30;99.90
15906;DHT22;8051;50.820;4.884;2023-10-09T09:09:34;18.40;99.90
15906;DHT22;8051;50.820;4.884;2023-10-09T09:12:01;18.40;99.90
15906;DHT22;8051;50.820;4.884;2023-10-09T09:14:38;18.50;99.90
15906;DHT22;8051;50.820;4.884;2023-10-09T09:17:07;18.50;99.90
15906;DHT22;8051;50.820;4.884;2023-10-09T09:19:37;18.40;99.90
15906;DHT22;8051;50.820;4.884;2023-10-09T09:22:05;18.60;99.90
15906;DHT22;8051;50.820;4.884;2023-10-09T09:24:39;18.80;99.90
15906;DHT22;8051;50.820;4.884;2023-10-09T09:27:11;18.90;99.90
15906;DHT22;8051;50.820;4.884;2023-10-09T09:29:47;19.00;99.90
15906;DHT22;8051;50.820;4.884;2023-10-09T09:32:29;19.10;99.90
15906;DHT22;8051;50.820;4.884;2023-10-09T09:35:03;19.20;99.90
15906;DHT22;8051;50.820;4.884;2023-10-09T09:37:32;19.30;99.90
15906;DHT22;8051;50.820;4.884;2023-10-09T09:40:16;19.30;99.90
15906;DHT22;8051;50.820;4.884;2023-10-09T09:42:57;19.30;99.90
15906;DHT22;8051;50.820;4.884;2023-10-09T09:45:32;19.40;99.90
15906;DHT22;8051;50.820;4.884;2023-10-09T09:48:03;19.40;99.90
15906;DHT22;8051;50.820;4.884;2023-10-09T09:50:32;19.40;99.90
15906;DHT22;8051;50.820;4.884;2023-10-09T09:53:04;19.50;99.90
15906;DHT22;8051;50.820;4.884;2023-10-09T09:55:34;19.60;99.90
15906;DHT22;8051;50.820;4.884;2023-10-09T09:58:13;19.80;99.90
15906;DHT22;8051;50.820;4.884;2023-10-09T10:00:45;20.00;99.90
15906;DHT22;8051;50.820;4.884;2023-10-09T10:03:22;20.10;99.90
15906;DHT22;8051;50.820;4.884;2023-10-09T10:05:51;20.10;99.90
15906;DHT22;8051;50.820;4.884;2023-10-09T10:08:23;19.90;99.90
15906;DHT22;8051;50.820;4.884;2023-10-09T10:10:58;20.10;99.90
15906;DHT22;8051;50.820;4.884;2023-10-09T10:13:55;20.30;99.90
15906;DHT22;8051;50.820;4.884;2023-10-09T10:16:30;20.40;99.90
15906;DHT22;8051;50.820;4.884;2023-10-09T10:19:03;20.50;99.90
15906;DHT22;8051;50.820;4.884;2023-10-09T10:21:33;20.50;99.90
15906;DHT22;8051;50.820;4.884;2023-10-09T10:27:21;20.40;99.90
15906;DHT22;8051;50.820;4.884;2023-10-09T10:33:04;20.40;99.90
15906;DHT22;8051;50.820;4.884;2023-10-09T10:35:43;20.40;99.90
15906;DHT22;8051;50.820;4.884;2023-10-09T10:38:39;20.40;99.90
15906;DHT22;8051;50.820;4.884;2023-10-09T10:41:17;20.60;99.90
15906;DHT22;8051;50.820;4.884;2023-10-09T10:43:46;20.90;99.90
15906;DHT22;8051;50.820;4.884;2023-10-09T10:46:25;21.00;99.90
15906;DHT22;8051;50.820;4.884;2023-10-09T10:49:08;21.10;99.90
15906;DHT22;8051;50.820;4.884;2023-10-09T10:51:48;21.00;99.90
15906;DHT22;8051;50.820;4.884;2023-10-09T10:54:27;21.10;99.90
15906;DHT22;8051;50.820;4.884;2023-10-09T10:57:20;21.10;99.90
15906;DHT22;8051;50.820;4.884;2023-10-09T10:59:56;21.00;99.90
15906;DHT22;8051;50.820;4.884;2023-10-09T11:02:44;20.90;99.90
15906;DHT22;8051;50.820;4.884;2023-10-09T11:05:14;20.90;99.90
15906;DHT22;8051;50.820;4.884;2023-10-09T11:07:51;21.00;99.90
15906;DHT22;8051;50.820;4.884;2023-10-09T11:10:23;21.30;99.90
15906;DHT22;8051;50.820;4.884;2023-10-09T11:12:57;21.40;99.90
15906;DHT22;8051;50.820;4.884;2023-10-09T11:15:41;21.30;99.90
15906;DHT22;8051;50.820;4.884;2023-10-09T11:18:13;21.30;99.90
15906;DHT22;8051;50.820;4.884;2023-10-09T11:20:48;21.40;99.90
15906;DHT22;8051;50.820;4.884;2023-10-09T11:23:24;21.30;99.90
15906;DHT22;8051;50.820;4.884;2023-10-09T11:26:04;21.20;99.90
15906;DHT22;8051;50.820;4.884;2023-10-09T11:28:48;21.20;99.90
15906;DHT22;8051;50.820;4.884;2023-10-09T11:31:39;21.10;99.90
15906;DHT22;8051;50.820;4.884;2023-10-09T11:34:18;21.00;99.90
15906;DHT22;8051;50.820;4.884;2023-10-09T11:36:56;20.80;99.90
15906;DHT22;8051;50.820;4.884;2023-10-09T11:39:29;20.60;99.90
15906;DHT22;8051;50.820;4.884;2023-10-09T11:42:03;20.80;99.90
15906;DHT22;8051;50.820;4.884;2023-10-09T11:44:40;20.90;99.90
15906;DHT22;8051;50.820;4.884;2023-10-09T11:47:11;21.00;99.90
15906;DHT22;8051;50.820;4.884;2023-10-09T11:49:51;21.00;99.90
15906;DHT22;8051;50.820;4.884;2023-10-09T11:52:36;21.20;99.90
15906;DHT22;8051;50.820;4.884;2023-10-09T11:55:24;21.10;99.90
15906;DHT22;8051;50.820;4.884;2023-10-09T11:57:51;21.10;99.90
15906;DHT22;8051;50.820;4.884;2023-10-09T12:00:18;21.10;99.90
15906;DHT22;8051;50.820;4.884;2023-10-09T12:02:55;21.10;99.90
15906;DHT22;8051;50.820;4.884;2023-10-09T12:05:31;21.10;99.90
15906;DHT22;8051;50.820;4.884;2023-10-09T12:07:59;21.10;99.90
15906;DHT22;8051;50.820;4.884;2023-10-09T12:10:28;21.00;99.90
15906;DHT22;8051;50.820;4.884;2023-10-09T12:12:56;21.00;99.90
15906;DHT22;8051;50.820;4.884;2023-10-09T12:15:25;21.00;99.90
15906;DHT22;8051;50.820;4.884;2023-10-09T12:17:58;21.10;99.90
15906;DHT22;8051;50.820;4.884;2023-10-09T12:20:28;21.20;99.90
15906;DHT22;8051;50.820;4.884;2023-10-09T12:22:58;21.30;99.90
15906;DHT22;8051;50.820;4.884;2023-10-09T12:25:27;21.30;99.90
15906;DHT22;8051;50.820;4.884;2023-10-09T12:27:57;21.20;99.90
15906;DHT22;8051;50.820;4.884;2023-10-09T12:30:27;21.20;99.90
15906;DHT22;8051;50.820;4.884;2023-10-09T12:32:56;21.10;99.90
15906;DHT22;8051;50.820;4.884;2023-10-09T12:35:24;21.30;99.90
15906;DHT22;8051;50.820;4.884;2023-10-09T12:37:52;21.20;99.90
15906;DHT22;8051;50.820;4.884;2023-10-09T12:40:21;21.30;99.90
15906;DHT22;8051;50.820;4.884;2023-10-09T12:42:56;21.40;99.90
15906;DHT22;8051;50.820;4.884;2023-10-09T12:45:26;21.50;99.90
15906;DHT22;8051;50.820;4.884;2023-10-09T12:47:57;21.50;99.90
15906;DHT22;8051;50.820;4.884;2023-10-09T12:50:28;21.40;99.90
15906;DHT22;8051;50.820;4.884;2023-10-09T12:52:59;21.50;99.90
15906;DHT22;8051;50.820;4.884;2023-10-09T12:55:35;21.50;99.90
15906;DHT22;8051;50.820;4.884;2023-10-09T12:58:08;21.40;99.90
15906;DHT22;8051;50.820;4.884;2023-10-09T13:00:40;21.50;99.90
15906;DHT22;8051;50.820;4.884;2023-10-09T13:03:15;21.60;99.90
15906;DHT22;8051;50.820;4.884;2023-10-09T13:05:48;21.50;99.90
15906;DHT22;8051;50.820;4.884;2023-10-09T13:08:21;21.60;99.90
15906;DHT22;8051;50.820;4.884;2023-10-09T13:10:50;21.60;99.90
15906;DHT22;8051;50.820;4.884;2023-10-09T13:13:38;21.50;99.90
15906;DHT22;8051;50.820;4.884;2023-10-09T13:16:10;21.50;99.90
15906;DHT22;8051;50.820;4.884;2023-10-09T13:18:42;21.20;99.90
15906;DHT22;8051;50.820;4.884;2023-10-09T13:21:16;21.20;99.90
15906;DHT22;8051;50.820;4.884;2023-10-09T13:23:44;21.20;99.90
15906;DHT22;8051;50.820;4.884;2023-10-09T13:26:15;21.10;99.90
15906;DHT22;8051;50.820;4.884;2023-10-09T13:28:52;21.20;99.90
15906;DHT22;8051;50.820;4.884;2023-10-09T13:31:21;21.20;99.90
15906;DHT22;8051;50.820;4.884;2023-10-09T13:33:52;21.10;99.90
15906;DHT22;8051;50.820;4.884;2023-10-09T13:36:21;21.00;99.90
15906;DHT22;8051;50.820;4.884;2023-10-09T13:38:57;21.10;99.90
15906;DHT22;8051;50.820;4.884;2023-10-09T13:41:28;21.20;99.90
15906;DHT22;8051;50.820;4.884;2023-10-09T13:43:57;21.30;99.90
15906;DHT22;8051;50.820;4.884;2023-10-09T13:46:25;21.30;99.90
15906;DHT22;8051;50.820;4.884;2023-10-09T13:48:52;21.40;99.90
15906;DHT22;8051;50.820;4.884;2023-10-09T13:51:20;21.50;99.90
15906;DHT22;8051;50.820;4.884;2023-10-09T13:53:50;21.50;99.90
15906;DHT22;8051;50.820;4.884;2023-10-09T13:56:18;21.60;99.90
15906;DHT22;8051;50.820;4.884;2023-10-09T13:58:47;21.70;99.90
15906;DHT22;8051;50.820;4.884;2023-10-09T14:01:16;21.90;99.90
15906;DHT22;8051;50.820;4.884;2023-10-09T14:03:58;21.70;99.90
15906;DHT22;8051;50.820;4.884;2023-10-09T14:06:27;21.70;99.90
15906;DHT22;8051;50.820;4.884;2023-10-09T14:08:58;21.60;99.90
15906;DHT22;8051;50.820;4.884;2023-10-09T14:11:28;21.70;99.90
15906;DHT22;8051;50.820;4.884;2023-10-09T14:13:55;21.80;99.90
15906;DHT22;8051;50.820;4.884;2023-10-09T14:16:27;21.90;99.90
15906;DHT22;8051;50.820;4.884;2023-10-09T14:18:55;21.90;99.90
15906;DHT22;8051;50.820;4.884;2023-10-09T14:21:25;21.80;99.90
15906;DHT22;8051;50.820;4.884;2023-10-09T14:23:56;21.70;99.90
15906;DHT22;8051;50.820;4.884;2023-10-09T14:26:27;21.60;99.90
15906;DHT22;8051;50.820;4.884;2023-10-09T14:28:56;21.60;99.90
15906;DHT22;8051;50.820;4.884;2023-10-09T14:31:28;21.60;99.90
15906;DHT22;8051;50.820;4.884;2023-10-09T14:33:56;21.50;99.90
15906;DHT22;8051;50.820;4.884;2023-10-09T14:36:24;21.50;99.90
15906;DHT22;8051;50.820;4.884;2023-10-09T14:38:59;21.60;99.90
15906;DHT22;8051;50.820;4.884;2023-10-09T14:41:27;21.70;99.90
15906;DHT22;8051;50.820;4.884;2023-10-09T14:43:59;21.70;99.90
15906;DHT22;8051;50.820;4.884;2023-10-09T14:46:28;21.90;99.90
15906;DHT22;8051;50.820;4.884;2023-10-09T14:48:56;22.00;99.90
15906;DHT22;8051;50.820;4.884;2023-10-09T14:51:25;21.90;99.90
15906;DHT22;8051;50.820;4.884;2023-10-09T14:53:56;22.00;99.90
15906;DHT22;8051;50.820;4.884;2023-10-09T14:56:27;22.10;99.90
15906;DHT22;8051;50.820;4.884;2023-10-09T14:59:00;22.20;99.90
15906;DHT22;8051;50.820;4.884;2023-10-09T15:01:29;22.20;99.90
15906;DHT22;8051;50.820;4.884;2023-10-09T15:03:57;22.20;99.90
15906;DHT22;8051;50.820;4.884;2023-10-09T15:06:26;22.00;99.90
15906;DHT22;8051;50.820;4.884;2023-10-09T15:08:56;21.70;99.90
15906;DHT22;8051;50.820;4.884;2023-10-09T15:11:25;21.50;99.90
15906;DHT22;8051;50.820;4.884;2023-10-09T15:13:55;21.20;99.90
15906;DHT22;8051;50.820;4.884;2023-10-09T15:16:24;21.20;99.90
15906;DHT22;8051;50.820;4.884;2023-10-09T15:18:56;21.10;99.90
15906;DHT22;8051;50.820;4.884;2023-10-09T15:21:24;21.20;99.90
15906;DHT22;8051;50.820;4.884;2023-10-09T15:23:54;21.10;99.90
15906;DHT22;8051;50.820;4.884;2023-10-09T15:26:22;21.00;99.90
15906;DHT22;8051;50.820;4.884;2023-10-09T15:28:51;21.00;99.90
15906;DHT22;8051;50.820;4.884;2023-10-09T15:31:19;21.00;99.90
15906;DHT22;8051;50.820;4.884;2023-10-09T15:33:48;21.10;99.90
15906;DHT22;8051;50.820;4.884;2023-10-09T15:36:19;21.10;99.90
15906;DHT22;8051;50.820;4.884;2023-10-09T15:38:48;21.10;99.90
15906;DHT22;8051;50.820;4.884;2023-10-09T15:41:16;21.10;99.90
15906;DHT22;8051;50.820;4.884;2023-10-09T15:43:47;21.00;99.90
15906;DHT22;8051;50.820;4.884;2023-10-09T15:46:15;20.90;99.90
15906;DHT22;8051;50.820;4.884;2023-10-09T15:48:43;20.80;99.90
15906;DHT22;8051;50.820;4.884;2023-10-09T15:51:12;20.80;99.90
15906;DHT22;8051;50.820;4.884;2023-10-09T15:53:43;20.70;99.90
15906;DHT22;8051;50.820;4.884;2023-10-09T15:56:10;20.70;99.90
15906;DHT22;8051;50.820;4.884;2023-10-09T15:58:39;20.60;99.90
15906;DHT22;8051;50.820;4.884;2023-10-09T16:01:10;20.50;99.90
15906;DHT22;8051;50.820;4.884;2023-10-09T16:03:40;20.40;99.90
15906;DHT22;8051;50.820;4.884;2023-10-09T16:06:08;20.40;99.90
15906;DHT22;8051;50.820;4.884;2023-10-09T16:08:38;20.40;99.90
15906;DHT22;8051;50.820;4.884;2023-10-09T16:11:07;20.40;99.90
15906;DHT22;8051;50.820;4.884;2023-10-09T16:13:35;20.40;99.90
15906;DHT22;8051;50.820;4.884;2023-10-09T16:16:04;20.30;99.90
15906;DHT22;8051;50.820;4.884;2023-10-09T16:18:34;20.30;99.90
15906;DHT22;8051;50.820;4.884;2023-10-09T16:21:04;20.30;99.90
15906;DHT22;8051;50.820;4.884;2023-10-09T16:23:33;20.20;99.90
15906;DHT22;8051;50.820;4.884;2023-10-09T16:26:02;20.10;99.90
15906;DHT22;8051;50.820;4.884;2023-10-09T16:28:34;20.00;99.90
15906;DHT22;8051;50.820;4.884;2023-10-09T16:31:02;19.90;99.90
15906;DHT22;8051;50.820;4.884;2023-10-09T16:33:32;19.80;99.90
15906;DHT22;8051;50.820;4.884;2023-10-09T16:36:00;19.60;99.90